Villa General Mitre, Argentina
Current Conditions -  °F | °C
As of 1:20 AM on Wednesday 26 Nov 2014 (Local Time) from SACO Reporting Station
Thunderstorm Thunderstorm  
Wind Chill: 63°   Ceiling: 5000
Heat Index: 63°   Visibility: 2.5mi
Dew Point: 59°   Wind: 2mph
Humidity: 88%   Direction: 320°NW
Pressure: 30.03"   Gusts: NA
Location:  30.76°S, 63.89°W
Report Text: SACO 260420Z 32002KT 4000 +TSRA FEW020 SCT045CB BKN050 17/15 Q1017
Loading
Personal Weather Stations






























Interactive Weather Map New forecast layout! Learn more

10-Day Weather Forecast

Advertisements
Track Severe Weather on mobile